Time;durP1;ratioP1;P1;durP2;ratioP2;P2;SDS_P1;SDS_P2;PMS_P1;PMS_P2;Temp;Humidity;BMP_temperature;BMP_pressure;BME280_temperature;BME280_humidity;BME280_pressure;Samples;Min_cycle;Max_cycle;Signal;HPM_P1;HPM_P2
2022/11/18 00:01:14;;;;;;;18.63;12.38;;;;;;;6.37;100.00;99510.06;5006567;28;20065;-75
2022/11/18 00:03:41;;;;;;;19.05;11.95;;;;;;;5.58;100.00;99386.53;5007762;28;20061;-75
2022/11/18 00:06:09;;;;;;;16.23;11.10;;;;;;;6.15;100.00;99490.00;4989913;28;20081;-76
2022/11/18 00:08:35;;;;;;;25.17;18.25;;;;;;;6.22;100.00;99504.78;5005387;28;20070;-76
2022/11/18 00:14:17;;;;;;;24.90;18.67;;;;;;;5.48;100.00;99383.03;4999107;28;20062;-76
2022/11/18 00:16:41;;;;;;;26.15;19.60;;;;;;;6.26;100.00;99519.56;5007229;28;20432;-77
2022/11/18 00:19:07;;;;;;;24.05;11.93;;;;;;;6.02;100.00;99484.78;5007443;28;20819;-78
2022/11/18 00:21:32;;;;;;;30.23;21.10;;;;;;;6.23;100.00;99530.84;5009864;28;20042;-76
2022/11/18 00:23:58;;;;;;;27.38;19.08;;;;;;;6.38;100.00;99526.56;5015629;28;20045;-75
2022/11/18 00:26:23;;;;;;;19.15;13.18;;;;;;;5.57;100.00;99403.03;5006965;28;20054;-76
2022/11/18 00:28:49;;;;;;;20.95;13.27;;;;;;;5.97;100.00;99491.72;5008649;28;20056;-77
2022/11/18 00:31:14;;;;;;;21.48;11.55;;;;;;;5.70;100.00;99511.50;5007946;28;20064;-79
2022/11/18 00:33:40;;;;;;;16.63;10.13;;;;;;;5.85;100.00;99499.41;4992877;28;20057;-77
2022/11/18 00:36:09;;;;;;;21.95;18.48;;;;;;;5.89;100.00;99511.59;4998275;28;20057;-78
2022/11/18 00:38:34;;;;;;;24.20;19.08;;;;;;;5.28;100.00;99408.09;5007877;28;20046;-77
2022/11/18 00:41:11;;;;;;;21.40;17.83;;;;;;;6.22;100.00;99530.84;5007765;28;20401;-77
2022/11/18 00:43:37;;;;;;;18.35;11.40;;;;;;;6.27;100.00;99543.00;5007995;28;20041;-78
2022/11/18 00:46:06;;;;;;;20.23;10.82;;;;;;;6.23;100.00;99546.50;5006415;28;20388;-77
2022/11/18 00:48:32;;;;;;;20.63;11.45;;;;;;;5.44;100.00;99409.03;5006703;28;20057;-76
2022/11/18 00:51:05;;;;;;;25.35;18.10;;;;;;;6.04;100.00;99524.72;5007310;28;20042;-77
2022/11/18 00:53:30;;;;;;;25.15;18.65;;;;;;;5.42;100.00;99408.16;4989472;28;20050;-75
2022/11/18 00:55:56;;;;;;;28.42;12.20;;;;;;;5.92;100.00;99506.38;5005500;28;20038;-78
2022/11/18 00:58:21;;;;;;;28.05;19.15;;;;;;;6.15;100.00;99555.13;4986510;28;20051;-74
2022/11/18 01:00:50;;;;;;;16.15;9.50;;;;;;;5.44;100.00;99424.66;4992859;28;20046;-76
2022/11/18 01:03:16;;;;;;;16.50;9.68;;;;;;;6.22;100.00;99560.34;4999438;28;20158;-74
2022/11/18 01:05:42;;;;;;;16.80;10.73;;;;;;;5.50;100.00;99448.97;4983360;28;20053;-75
2022/11/18 01:08:09;;;;;;;21.50;15.90;;;;;;;5.24;100.00;99424.53;4988252;28;20474;-76
2022/11/18 01:10:35;;;;;;;19.58;11.63;;;;;;;6.02;100.00;99547.28;4988332;28;20038;-75
2022/11/18 01:13:20;;;;;;;23.30;13.00;;;;;;;5.49;100.00;99464.56;4995556;28;20042;-75
2022/11/18 01:15:50;;;;;;;20.15;11.77;;;;;;;5.88;100.00;99554.13;4992082;28;20145;-74
2022/11/18 01:18:18;;;;;;;33.92;22.40;;;;;;;5.48;100.00;99507.06;4976100;28;20057;-74
2022/11/18 01:20:44;;;;;;;33.38;17.92;;;;;;;5.26;100.00;99525.09;4994400;28;20081;-75
2022/11/18 01:23:11;;;;;;;44.35;19.98;;;;;;;5.45;100.00;99540.84;5008089;28;20038;-75
2022/11/18 01:25:42;;;;;;;29.92;18.10;;;;;;;4.49;100.00;99382.44;4997312;28;20030;-75
2022/11/18 01:28:08;;;;;;;48.78;30.63;;;;;;;4.99;100.00;99515.38;4993308;28;20046;-75
2022/11/18 01:30:35;;;;;;;46.00;29.52;;;;;;;4.51;100.00;99409.31;4993994;28;20050;-75
2022/11/18 01:33:02;;;;;;;57.35;40.53;;;;;;;5.01;100.00;99507.56;4993046;28;20046;-75
2022/11/18 01:35:28;;;;;;;32.38;23.23;;;;;;;5.57;100.00;99529.63;4992201;28;20058;-76
2022/11/18 01:37:54;;;;;;;30.13;22.15;;;;;;;5.55;100.00;99524.44;4994120;28;20045;-76
2022/11/18 01:40:19;;;;;;;33.95;24.85;;;;;;;4.78;100.00;99382.69;4993774;28;20050;-75
2022/11/18 01:42:45;;;;;;;21.58;13.38;;;;;;;4.77;100.00;99383.50;4999004;28;20486;-77
2022/11/18 01:45:13;;;;;;;24.15;14.70;;;;;;;5.59;100.00;99544.41;5001357;28;20066;-76
2022/11/18 01:47:47;;;;;;;25.75;16.50;;;;;;;3.85;100.00;99300.56;4993152;28;20146;-76
2022/11/18 01:50:15;;;;;;;24.30;15.95;;;;;;;5.26;100.00;99483.50;4983384;28;20088;-75
2022/11/18 01:52:41;;;;;;;29.73;19.30;;;;;;;5.10;100.00;99415.78;4993365;28;20070;-76
2022/11/18 01:55:16;;;;;;;35.30;18.50;;;;;;;5.81;100.00;99532.38;4992189;28;20126;-76
2022/11/18 01:57:45;;;;;;;29.27;17.92;;;;;;;5.42;100.00;99461.03;5004950;28;20050;-78
2022/11/18 02:00:11;;;;;;;29.90;16.95;;;;;;;5.64;100.00;99490.66;4995849;28;20041;-77
2022/11/18 02:02:37;;;;;;;25.48;14.60;;;;;;;5.12;100.00;99391.53;5013202;28;20373;-77
2022/11/18 02:05:04;;;;;;;30.05;19.08;;;;;;;4.70;100.00;99379.13;5012008;28;20531;-77
2022/11/18 02:07:34;;;;;;;28.25;17.42;;;;;;;5.53;100.00;99513.16;4996561;28;20037;-78
2022/11/18 02:10:03;;;;;;;39.58;23.20;;;;;;;4.86;100.00;99423.44;5012433;28;20123;-76
2022/11/18 02:12:29;;;;;;;36.47;22.60;;;;;;;5.78;100.00;99519.34;5012950;28;20062;-76
2022/11/18 02:14:55;;;;;;;25.58;17.02;;;;;;;5.66;100.00;99477.63;5012359;28;20049;-77
2022/11/18 02:17:23;;;;;;;25.35;17.08;;;;;;;6.02;100.00;99536.84;5012346;28;20046;-77
2022/11/18 02:20:22;;;;;;;23.73;17.00;;;;;;;6.05;100.00;99547.28;5013504;28;20034;-79
2022/11/18 02:23:03;;;;;;;26.88;15.63;;;;;;;5.98;100.00;99542.03;5012120;28;20140;-78
2022/11/18 02:26:06;;;;;;;31.42;19.83;;;;;;;6.01;100.00;99542.91;5002669;28;20051;-77
2022/11/18 02:29:12;;;;;;;36.83;19.55;;;;;;;6.28;100.00;99556.94;5009885;28;20054;-75
2022/11/18 02:32:01;;;;;;;29.52;18.55;;;;;;;6.18;100.00;99561.25;5009089;28;20058;-76
2022/11/18 02:34:41;;;;;;;38.03;24.65;;;;;;;5.85;100.00;99585.31;5006186;28;20565;-78
2022/11/18 02:37:16;;;;;;;27.55;19.10;;;;;;;5.32;100.00;99515.63;5009986;28;20420;-76
2022/11/18 02:39:57;;;;;;;28.70;15.68;;;;;;;5.49;100.00;99568.63;5009760;28;20092;-77
2022/11/18 02:42:25;;;;;;;33.58;19.60;;;;;;;5.34;100.00;99563.31;5008413;28;20561;-76
2022/11/18 02:44:57;;;;;;;29.00;16.55;;;;;;;5.34;100.00;99516.47;4989261;28;20049;-76
2022/11/18 02:47:26;;;;;;;27.27;16.27;;;;;;;5.38;100.00;99550.31;5010437;28;20050;-76
2022/11/18 02:49:57;;;;;;;26.30;16.10;;;;;;;5.50;100.00;99557.34;5008179;28;20042;-77
2022/11/18 02:52:25;;;;;;;23.67;14.35;;;;;;;5.24;100.00;99524.25;5009630;28;20078;-77
2022/11/18 02:54:52;;;;;;;23.60;12.43;;;;;;;5.44;100.00;99565.13;5008007;28;20612;-78
2022/11/18 02:57:20;;;;;;;24.23;12.55;;;;;;;4.64;100.00;99419.81;5008086;28;20081;-79
2022/11/18 02:59:47;;;;;;;26.45;11.35;;;;;;;5.45;100.00;99564.25;5009593;28;20050;-78
2022/11/18 03:02:18;;;;;;;17.58;10.52;;;;;;;5.28;100.00;99539.00;5027786;28;20033;-77
2022/11/18 03:04:46;;;;;;;15.70;10.02;;;;;;;4.93;100.00;99426.94;5008706;28;20037;-78
2022/11/18 03:07:19;;;;;;;15.25;8.65;;;;;;;5.17;100.00;99451.34;5009175;28;20064;-79
2022/11/18 03:09:49;;;;;;;15.55;7.63;;;;;;;5.98;100.00;99549.84;5009533;28;20054;-76
2022/11/18 03:12:23;;;;;;;14.65;9.77;;;;;;;6.17;100.00;99554.25;5010557;28;20096;-76
2022/11/18 03:14:51;;;;;;;;;;;;;;;6.26;100.00;99558.66;5015155;28;20553;-75
2022/11/18 03:17:20;;;;;;;11.98;6.97;;;;;;;5.58;100.00;99440.31;5009344;28;19996;-78
2022/11/18 03:20:02;;;;;;;19.50;7.50;;;;;;;5.90;100.00;99548.06;5008261;28;20060;-78
2022/11/18 03:23:02;;;;;;;10.60;5.63;;;;;;;6.17;100.00;99545.59;5018814;28;20588;-78
2022/11/18 03:25:36;;;;;;;18.05;8.80;;;;;;;4.97;100.00;99368.06;5005933;28;20145;-77
2022/11/18 03:28:06;;;;;;;16.98;7.32;;;;;;;6.22;100.00;99549.06;5009337;28;20498;-79
2022/11/18 03:30:36;;;;;;;12.93;7.00;;;;;;;6.06;100.00;99506.47;5007380;28;20185;-79
2022/11/18 03:33:07;;;;;;;20.92;9.30;;;;;;;6.22;100.00;99513.47;5009254;28;20050;-77
2022/11/18 03:35:39;;;;;;;13.60;8.93;;;;;;;6.28;100.00;99533.47;5006157;28;20066;-77
2022/11/18 03:38:15;;;;;;;14.15;8.77;;;;;;;6.03;100.00;99528.16;5008672;28;20026;-75
2022/11/18 03:40:47;;;;;;;17.83;8.43;;;;;;;6.24;100.00;99510.88;5009209;28;20071;-76
2022/11/18 03:43:20;;;;;;;17.90;8.18;;;;;;;6.15;100.00;99509.09;5008598;28;20064;-75
2022/11/18 03:45:53;;;;;;;18.77;9.73;;;;;;;5.78;100.00;99425.63;5006279;28;20069;-75
2022/11/18 03:48:24;;;;;;;14.48;7.78;;;;;;;5.60;100.00;99469.81;5007515;28;20180;-75
2022/11/18 03:50:58;;;;;;;14.73;7.45;;;;;;;5.68;100.00;99547.06;5008375;28;20084;-77
2022/11/18 03:53:27;;;;;;;13.70;7.78;;;;;;;5.11;100.00;99453.94;5007586;28;20064;-78
2022/11/18 03:56:01;;;;;;;19.80;8.55;;;;;;;5.76;100.00;99515.00;5007500;28;20441;-77
2022/11/18 03:58:36;;;;;;;16.73;7.47;;;;;;;4.80;100.00;99406.91;5004598;28;20046;-77
2022/11/18 04:01:15;;;;;;;14.45;6.85;;;;;;;5.12;100.00;99486.88;5003423;28;20437;-77
2022/11/18 04:03:42;;;;;;;15.63;8.90;;;;;;;5.24;100.00;99508.66;5011659;28;20048;-77
2022/11/18 04:06:39;;;;;;;16.38;8.98;;;;;;;5.81;100.00;99542.81;5005221;28;20062;-78
2022/11/18 04:09:19;;;;;;;17.55;9.45;;;;;;;5.36;100.00;99530.38;4976629;28;20042;-78
2022/11/18 04:12:04;;;;;;;14.88;8.40;;;;;;;4.94;100.00;99430.41;4988451;28;20061;-79
2022/11/18 04:14:37;;;;;;;17.90;8.57;;;;;;;5.54;100.00;99581.66;5016599;28;20054;-80
2022/11/18 04:17:13;;;;;;;15.25;7.13;;;;;;;5.27;100.00;99563.28;5008323;28;20045;-78
2022/11/18 04:19:40;;;;;;;14.75;8.57;;;;;;;5.44;100.00;99567.72;5007352;28;20076;-76
2022/11/18 04:22:06;;;;;;;15.70;8.35;;;;;;;4.90;100.00;99496.25;5012502;28;20087;-78
2022/11/18 04:24:31;;;;;;;14.35;7.97;;;;;;;5.20;100.00;99571.03;5006656;28;20072;-79
2022/11/18 04:26:57;;;;;;;19.02;13.52;;;;;;;5.15;100.00;99588.28;5005889;28;20757;-79
2022/11/18 04:29:23;;;;;;;25.85;21.90;;;;;;;5.00;100.00;99586.44;5006481;28;20057;-77
2022/11/18 04:31:48;;;;;;;35.40;24.40;;;;;;;4.65;100.00;99501.22;5008557;28;20401;-76
2022/11/18 04:34:14;;;;;;;21.77;15.80;;;;;;;4.87;100.00;99491.91;5006297;28;20649;-77
2022/11/18 04:36:39;;;;;;;22.48;12.35;;;;;;;5.60;100.00;99582.59;5007889;28;20049;-76
2022/11/18 04:39:05;;;;;;;20.50;13.25;;;;;;;4.73;100.00;99442.41;5006329;28;20552;-79
2022/11/18 04:44:15;;;;;;;20.95;14.10;;;;;;;5.11;100.00;99587.41;5006329;28;20423;-77
2022/11/18 04:46:44;;;;;;;20.20;15.20;;;;;;;5.41;100.00;99596.34;5008376;28;20038;-77
2022/11/18 04:49:12;;;;;;;20.63;15.15;;;;;;;4.71;100.00;99472.72;5006787;28;20038;-78
2022/11/18 04:51:39;;;;;;;18.20;13.27;;;;;;;4.20;100.00;99427.22;5007278;28;20049;-75
2022/11/18 04:54:04;;;;;;;14.18;10.18;;;;;;;5.08;100.00;99564.00;5005254;28;20054;-77
2022/11/18 04:56:31;;;;;;;19.13;12.45;;;;;;;4.92;100.00;99551.72;5007565;28;20064;-79
2022/11/18 04:59:00;;;;;;;14.20;9.57;;;;;;;4.54;100.00;99487.25;4999266;28;20038;-77
2022/11/18 05:01:27;;;;;;;17.83;11.20;;;;;;;5.30;100.00;99606.63;4992827;28;20136;-76
2022/11/18 05:03:52;;;;;;;14.20;10.57;;;;;;;5.26;100.00;99597.06;4994906;28;20046;-78
2022/11/18 05:06:18;;;;;;;14.55;8.20;;;;;;;5.12;100.00;99562.28;5007709;28;20335;-77
2022/11/18 05:08:43;;;;;;;12.98;6.88;;;;;;;4.42;100.00;99457.75;5005506;28;20069;-77
2022/11/18 05:13:53;;;;;;;13.23;6.50;;;;;;;4.23;100.00;99448.88;4997648;28;20092;-77
2022/11/18 05:16:18;;;;;;;14.15;6.30;;;;;;;5.15;100.00;99603.91;5007235;28;20156;-76
2022/11/18 05:18:44;;;;;;;11.18;6.63;;;;;;;5.37;100.00;99607.56;4998185;28;20049;-75
2022/11/18 05:21:10;;;;;;;7.97;4.25;;;;;;;4.50;100.00;99485.50;4972686;28;20047;-79
2022/11/18 05:23:35;;;;;;;10.93;5.82;;;;;;;4.39;100.00;99475.00;4975772;28;20046;-78
2022/11/18 05:26:04;;;;;;;7.50;3.75;;;;;;;5.04;100.00;99599.47;4993594;28;20052;-76
2022/11/18 05:28:30;;;;;;;8.77;4.15;;;;;;;4.53;100.00;99464.75;4989121;28;20486;-76
2022/11/18 05:30:55;;;;;;;6.97;3.88;;;;;;;4.50;100.00;99473.38;4988036;28;20051;-78
2022/11/18 05:33:21;;;;;;;8.38;3.72;;;;;;;4.38;100.00;99460.28;4986146;28;20424;-76
2022/11/18 05:35:46;;;;;;;9.30;4.30;;;;;;;5.23;100.00;99610.91;4987086;28;20058;-78
2022/11/18 05:38:12;;;;;;;8.63;3.97;;;;;;;5.24;100.00;99588.38;5004980;28;20033;-78
2022/11/18 05:40:38;;;;;;;15.13;6.07;;;;;;;5.42;100.00;99619.75;5005067;28;20104;-76
2022/11/18 05:43:12;;;;;;;6.60;3.42;;;;;;;4.72;100.00;99515.16;4984655;28;20494;-76
2022/11/18 05:45:39;;;;;;;10.15;5.75;;;;;;;4.74;100.00;99523.81;4968230;28;20094;-76
2022/11/18 05:48:06;;;;;;;9.40;5.75;;;;;;;5.33;100.00;99587.59;4991942;28;20580;-76
2022/11/18 05:50:37;;;;;;;7.85;4.78;;;;;;;4.69;100.00;99499.53;4987155;28;20050;-76
2022/11/18 05:53:03;;;;;;;9.23;5.20;;;;;;;4.71;100.00;99537.66;4971153;28;20041;-77
2022/11/18 05:55:36;;;;;;;8.90;5.32;;;;;;;4.74;100.00;99539.41;4975526;28;20035;-75
2022/11/18 05:58:01;;;;;;;23.30;5.47;;;;;;;5.19;100.00;99626.47;4981819;28;20108;-81
2022/11/18 06:00:28;;;;;;;12.10;5.68;;;;;;;4.94;100.00;99571.69;5018091;28;20527;-78
2022/11/18 06:02:55;;;;;;;26.55;7.57;;;;;;;4.16;100.00;99459.19;5008187;28;20414;-81
2022/11/18 06:05:23;;;;;;;13.80;6.55;;;;;;;5.10;100.00;99597.78;5000134;28;20046;-78
2022/11/18 06:07:48;;;;;;;9.95;5.82;;;;;;;4.24;100.00;99473.13;5010648;28;20042;-76
2022/11/18 06:10:27;;;;;;;9.77;6.10;;;;;;;4.72;100.00;99547.19;4992006;28;20068;-76
2022/11/18 06:12:57;;;;;;;10.90;5.90;;;;;;;4.96;100.00;99587.25;5009785;28;20050;-77
2022/11/18 06:15:27;;;;;;;15.88;8.48;;;;;;;4.57;100.00;99498.56;5008914;28;20050;-76
2022/11/18 06:17:59;;;;;;;10.95;6.57;;;;;;;4.44;100.00;99487.16;5008821;28;20124;-76
2022/11/18 06:20:26;;;;;;;11.40;7.93;;;;;;;5.33;100.00;99614.47;5009041;28;20073;-75
2022/11/18 06:22:55;;;;;;;11.27;6.43;;;;;;;4.76;100.00;99554.16;5014466;28;20052;-78
2022/11/18 06:25:21;;;;;;;13.18;8.15;;;;;;;4.65;100.00;99524.59;5005337;28;20124;-76
2022/11/18 06:27:49;;;;;;;16.90;7.72;;;;;;;5.01;100.00;99616.75;5009359;28;20061;-76
2022/11/18 06:30:14;;;;;;;10.02;5.97;;;;;;;5.26;100.00;99639.53;5005787;28;20053;-76
2022/11/18 06:32:41;;;;;;;17.02;8.05;;;;;;;4.34;100.00;99502.66;4993056;28;20493;-76
2022/11/18 06:35:07;;;;;;;13.20;7.75;;;;;;;4.39;100.00;99521.75;5009147;28;20029;-78
2022/11/18 06:37:34;;;;;;;8.85;5.10;;;;;;;5.21;100.00;99623.03;4990586;28;20568;-74
2022/11/18 06:39:59;;;;;;;11.15;6.95;;;;;;;4.28;100.00;99485.28;4997818;28;20054;-75
2022/11/18 06:45:12;;;;;;;13.48;7.20;;;;;;;5.00;100.00;99618.50;4989457;28;20221;-87
2022/11/18 06:47:37;;;;;;;11.05;7.07;;;;;;;4.29;100.00;99468.00;4995723;28;20133;-77
2022/11/18 06:50:04;;;;;;;14.32;8.23;;;;;;;5.44;100.00;99649.25;5008629;28;20030;-77
2022/11/18 06:52:29;;;;;;;11.55;6.65;;;;;;;5.59;100.00;99642.41;5004037;28;20124;-78
2022/11/18 06:54:55;;;;;;;18.00;7.47;;;;;;;4.92;100.00;99517.94;4987948;28;20137;-75
2022/11/18 06:57:20;;;;;;;17.70;7.10;;;;;;;5.50;100.00;99604.19;4975457;28;20050;-75
2022/11/18 06:59:45;;;;;;;22.58;11.15;;;;;;;5.77;100.00;99626.94;4990341;28;20530;-75
2022/11/18 07:02:11;;;;;;;15.50;8.38;;;;;;;5.72;100.00;99600.00;5006100;28;20041;-76
2022/11/18 07:04:39;;;;;;;20.70;10.38;;;;;;;4.89;100.00;99478.91;5006126;28;20034;-77
2022/11/18 07:07:06;;;;;;;16.08;7.88;;;;;;;5.74;100.00;99611.31;5008659;28;20042;-78
2022/11/18 07:09:32;;;;;;;12.73;8.00;;;;;;;6.01;100.00;99633.19;5003672;28;20046;-74
2022/11/18 07:11:58;;;;;;;12.90;6.25;;;;;;;5.14;100.00;99474.75;4999140;28;20050;-76
2022/11/18 07:14:23;;;;;;;17.48;9.93;;;;;;;5.04;100.00;99495.47;5006234;28;20052;-76
2022/11/18 07:16:49;;;;;;;18.90;10.02;;;;;;;5.96;100.00;99625.34;5008770;28;20034;-84
2022/11/18 07:19:14;;;;;;;17.65;10.98;;;;;;;5.61;100.00;99580.84;5020440;28;20342;-80
2022/11/18 07:21:41;;;;;;;21.92;10.98;;;;;;;4.97;100.00;99487.63;5011448;28;20327;-79
2022/11/18 07:24:07;;;;;;;20.35;9.38;;;;;;;6.20;100.00;99627.22;4997528;28;20517;-79
2022/11/18 07:26:34;;;;;;;16.83;9.57;;;;;;;5.67;100.00;99555.75;4989573;28;20057;-82
2022/11/18 07:29:00;;;;;;;15.85;11.32;;;;;;;5.21;100.00;99510.34;5008647;28;20033;-77
2022/11/18 07:31:26;;;;;;;14.88;9.43;;;;;;;6.17;100.00;99618.53;5007467;28;20037;-78
2022/11/18 07:33:54;;;;;;;16.80;9.93;;;;;;;5.82;100.00;99505.47;5007610;28;20046;-76
2022/11/18 07:36:22;;;;;;;15.55;8.65;;;;;;;5.59;100.00;99468.06;4989854;28;20046;-76
2022/11/18 07:38:49;;;;;;;12.90;8.07;;;;;;;6.48;100.00;99622.97;5003558;28;20050;-77
2022/11/18 07:41:17;;;;;;;16.25;9.50;;;;;;;5.65;100.00;99551.38;5005762;28;20053;-77
2022/11/18 07:43:42;;;;;;;15.88;10.45;;;;;;;5.85;100.00;99613.97;5009403;28;20037;-78
2022/11/18 07:46:18;;;;;;;14.32;8.52;;;;;;;5.53;100.00;99468.91;5006729;28;20188;-76
2022/11/18 07:48:45;;;;;;;17.00;8.57;;;;;;;5.55;100.00;99511.44;4993722;28;20050;-80
2022/11/18 07:51:12;;;;;;;21.30;8.55;;;;;;;5.38;100.00;99464.47;4995596;28;20107;-76
2022/11/18 07:53:39;;;;;;;27.50;10.52;;;;;;;5.65;100.00;99476.78;4990752;28;20062;-77
2022/11/18 07:56:06;;;;;;;19.70;10.27;;;;;;;6.60;100.00;99595.22;4991182;28;20038;-75
2022/11/18 07:58:31;;;;;;;15.60;9.30;;;;;;;5.62;100.00;99473.28;4983358;28;20688;-76
2022/11/18 08:00:57;;;;;;;17.50;11.00;;;;;;;5.49;100.00;99452.41;5018252;28;20280;-76
2022/11/18 08:03:26;;;;;;;17.73;9.75;;;;;;;5.33;100.00;99429.78;5008299;28;20054;-79
2022/11/18 08:06:01;;;;;;;15.95;9.95;;;;;;;5.92;100.00;99472.53;5004814;28;20092;-83
2022/11/18 08:08:27;;;;;;;17.63;11.55;;;;;;;6.25;100.00;99525.63;4992396;28;20107;-81
2022/11/18 08:10:56;;;;;;;18.20;10.63;;;;;;;5.74;100.00;99433.44;5005631;28;20481;-81
2022/11/18 08:13:22;;;;;;;28.90;10.63;;;;;;;5.61;100.00;99409.97;5004054;28;20176;-82
2022/11/18 08:15:47;;;;;;;21.90;11.50;;;;;;;6.40;100.00;99572.59;5003793;28;20050;-79
2022/11/18 08:18:14;;;;;;;20.90;11.48;;;;;;;6.20;100.00;99490.91;5003465;28;20046;-80
2022/11/18 08:20:40;;;;;;;16.55;12.45;;;;;;;5.86;100.00;99457.78;5003462;28;20045;-81
2022/11/18 08:23:05;;;;;;;14.10;10.63;;;;;;;6.55;100.00;99580.47;5002934;28;20756;-81
2022/11/18 08:25:32;;;;;;;19.67;12.93;;;;;;;6.01;100.00;99454.38;5006172;28;20033;-81
2022/11/18 08:27:58;;;;;;;22.60;14.15;;;;;;;6.49;100.00;99524.84;5003932;28;20092;-77
2022/11/18 08:30:23;;;;;;;27.88;14.40;;;;;;;6.95;100.00;99582.25;5001737;28;20058;-77
2022/11/18 08:32:49;;;;;;;20.02;14.30;;;;;;;6.96;100.00;99591.84;4998351;28;20049;-85
2022/11/18 08:35:14;;;;;;;46.28;15.82;;;;;;;6.38;100.00;99471.84;5006254;28;20434;-84
2022/11/18 08:37:40;;;;;;;25.00;15.80;;;;;;;6.76;100.00;99534.44;5004607;28;20134;-83
2022/11/18 08:40:06;;;;;;;26.42;12.70;;;;;;;6.94;100.00;99588.34;5005766;28;20517;-76
2022/11/18 08:42:31;;;;;;;22.55;14.35;;;;;;;7.00;100.00;99577.94;4998862;28;20061;-80
2022/11/18 08:44:57;;;;;;;22.63;14.85;;;;;;;6.26;100.00;99457.06;5004277;28;20046;-78
2022/11/18 08:47:22;;;;;;;20.85;12.93;;;;;;;6.94;100.00;99577.91;5000553;28;20076;-84
2022/11/18 08:49:48;;;;;;;28.85;17.55;;;;;;;6.70;100.00;99445.81;5002148;28;20034;-83
2022/11/18 08:52:13;;;;;;;19.25;12.73;;;;;;;7.66;100.00;99579.66;5006504;28;20050;-84
2022/11/18 08:54:40;;;;;;;26.27;20.08;;;;;;;6.55;100.00;99429.31;4985330;28;20065;-80
2022/11/18 08:57:05;;;;;;;25.02;15.63;;;;;;;6.94;100.00;99481.44;5002664;28;20069;-86
2022/11/18 08:59:31;;;;;;;27.70;15.40;;;;;;;7.75;100.00;99601.41;5001555;28;20073;-75
2022/11/18 09:01:57;;;;;;;30.92;20.70;;;;;;;7.25;100.00;99477.03;5002293;28;20085;-75
2022/11/18 09:04:22;;;;;;;23.95;17.50;;;;;;;8.13;99.07;99576.03;4997735;28;20042;-75
2022/11/18 09:06:48;;;;;;;27.02;17.98;;;;;;;7.74;100.00;99593.56;5000830;28;20513;-78
2022/11/18 09:09:14;;;;;;;32.10;17.98;;;;;;;7.96;99.78;99566.53;5005366;28;20050;-82
2022/11/18 09:11:40;;;;;;;28.27;16.77;;;;;;;10.25;100.00;99580.50;4998863;28;20075;-72
2022/11/18 09:14:05;;;;;;;34.15;22.02;;;;;;;8.87;97.90;99576.53;5002012;28;20034;-69
2022/11/18 09:16:33;;;;;;;29.92;21.33;;;;;;;9.92;100.00;99450.72;5005424;28;20026;-68
2022/11/18 09:18:59;;;;;;;32.95;19.90;;;;;;;10.87;99.87;99532.47;4986066;28;20054;-68
2022/11/18 09:21:25;;;;;;;31.63;21.88;;;;;;;12.37;91.53;99578.84;5004148;28;20042;-67
2022/11/18 09:23:51;;;;;;;34.55;20.23;;;;;;;13.15;92.00;99544.63;5003788;28;20062;-73
2022/11/18 09:26:19;;;;;;;37.70;22.67;;;;;;;12.58;87.42;99564.38;5004968;28;20224;-71
2022/11/18 09:28:46;;;;;;;34.38;20.00;;;;;;;12.14;86.18;99498.66;5002448;28;20050;-74
2022/11/18 09:31:14;;;;;;;24.50;20.60;;;;;;;12.26;83.83;99531.72;4984827;28;20927;-72
2022/11/18 09:33:41;;;;;;;28.92;20.77;;;;;;;11.92;88.44;99544.69;5000317;28;20182;-71
2022/11/18 09:36:15;;;;;;;41.65;21.92;;;;;;;12.68;83.17;99460.59;4999491;28;20084;-68
2022/11/18 09:38:41;;;;;;;70.82;54.03;;;;;;;14.32;82.53;99424.47;5005614;28;20046;-66
2022/11/18 09:41:29;;;;;;;87.90;62.67;;;;;;;14.34;79.26;99541.41;5003145;28;20540;-65
2022/11/18 09:44:24;;;;;;;26.38;19.73;;;;;;;10.55;82.53;99552.16;5005892;28;20048;-65
2022/11/18 09:47:28;;;;;;;30.02;19.55;;;;;;;10.65;84.25;99509.19;5008014;28;20042;-78
2022/11/18 09:50:01;;;;;;;26.42;19.58;;;;;;;10.15;82.65;99366.53;5005256;28;20042;-79
2022/11/18 09:52:28;;;;;;;28.60;18.52;;;;;;;11.50;82.62;99516.53;5009024;28;20208;-78
2022/11/18 09:54:54;;;;;;;28.67;19.30;;;;;;;11.17;82.83;99495.22;5006492;28;20129;-77
2022/11/18 09:57:23;;;;;;;30.45;19.15;;;;;;;10.93;83.92;99490.38;4999207;28;20188;-80
2022/11/18 09:59:50;;;;;;;25.58;18.63;;;;;;;11.36;83.70;99473.91;5002894;28;20556;-78
2022/11/18 10:02:33;;;;;;;30.25;21.17;;;;;;;10.67;85.68;99478.53;5005093;28;20116;-78
2022/11/18 10:05:12;;;;;;;24.52;19.95;;;;;;;9.93;83.72;99269.91;5004929;28;20038;-79
2022/11/18 10:08:04;;;;;;;23.13;18.65;;;;;;;10.68;83.67;99391.09;5008008;28;20041;-75
2022/11/18 10:10:50;;;;;;;23.50;17.77;;;;;;;11.46;83.23;99474.59;4993196;28;20084;-79
2022/11/18 10:13:16;;;;;;;27.95;19.40;;;;;;;10.75;82.28;99355.13;4997872;28;20523;-80
2022/11/18 10:16:05;;;;;;;34.00;22.92;;;;;;;11.28;82.36;99449.53;5004923;28;20041;-78
2022/11/18 10:18:45;;;;;;;27.63;19.48;;;;;;;10.92;84.26;99449.28;5002901;28;20045;-83
2022/11/18 10:21:28;;;;;;;35.40;20.90;;;;;;;10.63;84.98;99453.25;4985368;28;20057;-78
2022/11/18 10:24:06;;;;;;;30.63;22.20;;;;;;;10.93;84.59;99466.75;5001828;28;20132;-80
2022/11/18 10:26:34;;;;;;;29.75;23.02;;;;;;;10.77;84.31;99416.31;4987056;28;20054;-80
2022/11/18 10:28:59;;;;;;;32.47;21.67;;;;;;;10.26;84.10;99329.69;4990326;28;20812;-78
2022/11/18 10:31:24;;;;;;;29.90;21.88;;;;;;;11.00;83.79;99415.88;5005712;28;20061;-80
2022/11/18 10:34:00;;;;;;;34.00;23.42;;;;;;;11.13;83.56;99424.41;5008346;28;20061;-78
2022/11/18 10:36:31;;;;;;;33.83;20.42;;;;;;;10.45;82.67;99306.69;5014700;28;20060;-79
2022/11/18 10:39:06;;;;;;;33.45;23.23;;;;;;;11.35;82.27;99430.97;5005647;28;20082;-76
2022/11/18 10:41:43;;;;;;;31.60;20.83;;;;;;;10.96;80.98;99341.59;5003935;28;20144;-82
2022/11/18 10:44:26;;;;;;;31.42;21.33;;;;;;;11.49;81.89;99412.31;4991052;28;20571;-83
2022/11/18 10:46:52;;;;;;;33.57;22.97;;;;;;;11.17;80.98;99352.59;5008263;28;20089;-77
2022/11/18 10:49:17;;;;;;;28.67;21.42;;;;;;;11.34;81.23;99415.28;4997791;28;20501;-81
2022/11/18 10:52:05;;;;;;;28.90;22.50;;;;;;;11.17;81.31;99384.09;4994305;28;20465;-81
2022/11/18 10:54:30;;;;;;;31.13;21.73;;;;;;;11.23;81.88;99414.59;5007216;28;20048;-79
2022/11/18 10:57:24;;;;;;;28.40;19.52;;;;;;;11.45;81.04;99405.44;5004335;28;20058;-78
2022/11/18 10:59:53;;;;;;;30.60;20.47;;;;;;;11.32;80.10;99386.41;4999497;28;20054;-81
2022/11/18 11:02:19;;;;;;;30.10;20.33;;;;;;;10.70;81.73;99289.59;4999679;28;20046;-78
2022/11/18 11:04:50;;;;;;;27.15;20.38;;;;;;;11.02;79.66;99285.47;5003378;28;20057;-76
2022/11/18 11:07:37;;;;;;;27.35;20.70;;;;;;;11.52;79.00;99365.00;5003034;28;20065;-77
2022/11/18 11:10:06;;;;;;;29.30;21.05;;;;;;;11.78;78.81;99406.50;4986464;28;20966;-76
2022/11/18 11:12:32;;;;;;;27.48;20.48;;;;;;;11.87;77.83;99392.34;5008613;28;20066;-75
2022/11/18 11:15:13;;;;;;;27.73;19.60;;;;;;;11.71;78.35;99404.03;4999733;28;20050;-84
2022/11/18 11:20:53;;;;;;;36.38;21.02;;;;;;;11.18;78.67;99309.66;5000136;28;20057;-83
2022/11/18 11:23:19;;;;;;;26.02;18.38;;;;;;;11.67;79.92;99405.00;5005279;28;20076;-81
2022/11/18 11:26:03;;;;;;;28.63;20.30;;;;;;;11.67;81.27;99399.72;4984750;28;20155;-79
2022/11/18 11:28:28;;;;;;;26.13;19.13;;;;;;;11.60;79.99;99386.72;4987798;28;20499;-76
2022/11/18 11:31:09;;;;;;;34.53;20.85;;;;;;;11.69;79.91;99377.78;5001563;28;20049;-83
2022/11/18 11:33:51;;;;;;;32.28;20.02;;;;;;;11.56;80.64;99377.16;5000293;28;20141;-84
2022/11/18 11:36:43;;;;;;;30.00;20.23;;;;;;;11.49;80.22;99393.06;5002779;28;20057;-81
2022/11/18 11:39:46;;;;;;;25.40;18.10;;;;;;;11.87;80.08;99388.78;5001989;28;20045;-80
2022/11/18 11:42:39;;;;;;;33.22;19.25;;;;;;;11.71;79.08;99396.16;5006416;28;20068;-84
2022/11/18 11:45:27;;;;;;;34.85;19.67;;;;;;;11.71;79.11;99380.38;5003778;28;20841;-79
2022/11/18 11:48:17;;;;;;;25.05;18.52;;;;;;;11.71;79.33;99367.25;5003325;28;20068;-76
2022/11/18 11:50:55;;;;;;;25.65;17.70;;;;;;;11.49;77.92;99288.84;5004834;28;20203;-76